sensor_id;sensor_type;location;lat;lon;timestamp;P1;durP1;ratioP1;P2;durP2;ratioP2
49015;SDS011;34830;44.064;12.566;2022-12-18T00:01:02;29.20;;;19.08;;
49015;SDS011;34830;44.064;12.566;2022-12-18T00:03:32;32.75;;;19.15;;
49015;SDS011;34830;44.064;12.566;2022-12-18T00:05:59;32.97;;;19.00;;
49015;SDS011;34830;44.064;12.566;2022-12-18T00:08:25;31.40;;;19.63;;
49015;SDS011;34830;44.064;12.566;2022-12-18T00:10:51;28.95;;;17.70;;
49015;SDS011;34830;44.064;12.566;2022-12-18T00:13:17;31.02;;;17.75;;
49015;SDS011;34830;44.064;12.566;2022-12-18T00:15:43;32.63;;;18.95;;
49015;SDS011;34830;44.064;12.566;2022-12-18T00:18:09;28.63;;;18.35;;
49015;SDS011;34830;44.064;12.566;2022-12-18T00:20:38;29.85;;;18.95;;
49015;SDS011;34830;44.064;12.566;2022-12-18T00:23:05;30.02;;;18.80;;
49015;SDS011;34830;44.064;12.566;2022-12-18T00:25:34;32.05;;;18.25;;
49015;SDS011;34830;44.064;12.566;2022-12-18T00:28:01;31.08;;;18.10;;
49015;SDS011;34830;44.064;12.566;2022-12-18T00:30:29;25.52;;;17.77;;
49015;SDS011;34830;44.064;12.566;2022-12-18T00:32:55;30.85;;;18.17;;
49015;SDS011;34830;44.064;12.566;2022-12-18T00:35:25;27.42;;;18.05;;
49015;SDS011;34830;44.064;12.566;2022-12-18T00:37:52;30.45;;;18.60;;
49015;SDS011;34830;44.064;12.566;2022-12-18T00:40:18;27.60;;;17.42;;
49015;SDS011;34830;44.064;12.566;2022-12-18T00:42:44;27.08;;;17.58;;
49015;SDS011;34830;44.064;12.566;2022-12-18T00:45:24;34.05;;;18.20;;
49015;SDS011;34830;44.064;12.566;2022-12-18T00:47:54;31.65;;;18.45;;
49015;SDS011;34830;44.064;12.566;2022-12-18T00:50:21;35.63;;;18.77;;
49015;SDS011;34830;44.064;12.566;2022-12-18T00:52:48;30.52;;;18.83;;
49015;SDS011;34830;44.064;12.566;2022-12-18T00:55:14;31.20;;;17.58;;
49015;SDS011;34830;44.064;12.566;2022-12-18T00:57:41;34.63;;;19.40;;
49015;SDS011;34830;44.064;12.566;2022-12-18T01:00:08;29.80;;;17.35;;
49015;SDS011;34830;44.064;12.566;2022-12-18T01:02:36;30.08;;;17.25;;
49015;SDS011;34830;44.064;12.566;2022-12-18T01:05:02;28.13;;;19.02;;
49015;SDS011;34830;44.064;12.566;2022-12-18T01:07:29;26.42;;;17.05;;
49015;SDS011;34830;44.064;12.566;2022-12-18T01:09:55;27.00;;;16.95;;
49015;SDS011;34830;44.064;12.566;2022-12-18T01:12:21;25.23;;;16.92;;
49015;SDS011;34830;44.064;12.566;2022-12-18T01:14:49;28.80;;;17.13;;
49015;SDS011;34830;44.064;12.566;2022-12-18T01:17:16;26.05;;;16.60;;
49015;SDS011;34830;44.064;12.566;2022-12-18T01:19:42;28.13;;;16.70;;
49015;SDS011;34830;44.064;12.566;2022-12-18T01:22:09;32.58;;;18.10;;
49015;SDS011;34830;44.064;12.566;2022-12-18T01:24:35;27.13;;;17.48;;
49015;SDS011;34830;44.064;12.566;2022-12-18T01:27:01;25.67;;;16.35;;
49015;SDS011;34830;44.064;12.566;2022-12-18T01:29:27;27.48;;;16.75;;
49015;SDS011;34830;44.064;12.566;2022-12-18T01:31:54;32.72;;;16.98;;
49015;SDS011;34830;44.064;12.566;2022-12-18T01:34:22;25.80;;;15.25;;
49015;SDS011;34830;44.064;12.566;2022-12-18T01:36:48;28.02;;;17.35;;
49015;SDS011;34830;44.064;12.566;2022-12-18T01:39:18;26.58;;;16.75;;
49015;SDS011;34830;44.064;12.566;2022-12-18T01:41:44;25.15;;;16.15;;
49015;SDS011;34830;44.064;12.566;2022-12-18T01:44:51;25.73;;;15.48;;
49015;SDS011;34830;44.064;12.566;2022-12-18T01:52:50;25.75;;;17.45;;
49015;SDS011;34830;44.064;12.566;2022-12-18T01:55:19;26.45;;;17.33;;
49015;SDS011;34830;44.064;12.566;2022-12-18T01:57:49;26.52;;;17.00;;
49015;SDS011;34830;44.064;12.566;2022-12-18T02:00:17;26.33;;;16.90;;
49015;SDS011;34830;44.064;12.566;2022-12-18T02:02:45;27.80;;;16.70;;
49015;SDS011;34830;44.064;12.566;2022-12-18T02:05:13;30.73;;;17.17;;
49015;SDS011;34830;44.064;12.566;2022-12-18T02:07:45;28.25;;;16.98;;
49015;SDS011;34830;44.064;12.566;2022-12-18T02:13:22;29.35;;;15.88;;
49015;SDS011;34830;44.064;12.566;2022-12-18T02:18:47;28.95;;;17.33;;
49015;SDS011;34830;44.064;12.566;2022-12-18T02:21:20;26.08;;;17.13;;
49015;SDS011;34830;44.064;12.566;2022-12-18T02:29:02;32.47;;;18.58;;
49015;SDS011;34830;44.064;12.566;2022-12-18T02:31:37;27.95;;;17.50;;
49015;SDS011;34830;44.064;12.566;2022-12-18T02:34:06;30.88;;;17.38;;
49015;SDS011;34830;44.064;12.566;2022-12-18T02:36:38;26.40;;;18.27;;
49015;SDS011;34830;44.064;12.566;2022-12-18T02:39:06;30.92;;;17.75;;
49015;SDS011;34830;44.064;12.566;2022-12-18T02:41:35;29.85;;;18.65;;
49015;SDS011;34830;44.064;12.566;2022-12-18T02:44:06;33.03;;;19.02;;
49015;SDS011;34830;44.064;12.566;2022-12-18T02:49:09;30.85;;;17.80;;
49015;SDS011;34830;44.064;12.566;2022-12-18T02:57:12;31.45;;;18.25;;
49015;SDS011;34830;44.064;12.566;2022-12-18T03:00:03;32.58;;;17.95;;
49015;SDS011;34830;44.064;12.566;2022-12-18T03:07:41;32.38;;;18.40;;
49015;SDS011;34830;44.064;12.566;2022-12-18T03:10:13;30.48;;;16.80;;
49015;SDS011;34830;44.064;12.566;2022-12-18T03:12:52;27.92;;;15.93;;
49015;SDS011;34830;44.064;12.566;2022-12-18T03:15:27;30.92;;;18.00;;
49015;SDS011;34830;44.064;12.566;2022-12-18T03:18:06;34.80;;;16.38;;
49015;SDS011;34830;44.064;12.566;2022-12-18T03:20:36;29.60;;;16.75;;
49015;SDS011;34830;44.064;12.566;2022-12-18T03:23:09;31.80;;;16.30;;
49015;SDS011;34830;44.064;12.566;2022-12-18T03:25:38;25.95;;;15.05;;
49015;SDS011;34830;44.064;12.566;2022-12-18T03:28:06;24.52;;;14.77;;
49015;SDS011;34830;44.064;12.566;2022-12-18T03:30:37;25.83;;;15.32;;
49015;SDS011;34830;44.064;12.566;2022-12-18T03:33:17;27.40;;;14.07;;
49015;SDS011;34830;44.064;12.566;2022-12-18T03:35:47;27.38;;;14.25;;
49015;SDS011;34830;44.064;12.566;2022-12-18T03:38:13;20.50;;;13.25;;
49015;SDS011;34830;44.064;12.566;2022-12-18T03:47:04;22.35;;;10.48;;
49015;SDS011;34830;44.064;12.566;2022-12-18T03:49:19;20.98;;;11.70;;
49015;SDS011;34830;44.064;12.566;2022-12-18T03:51:58;18.27;;;10.23;;
49015;SDS011;34830;44.064;12.566;2022-12-18T03:54:27;20.52;;;9.93;;
49015;SDS011;34830;44.064;12.566;2022-12-18T03:57:03;15.23;;;9.10;;
49015;SDS011;34830;44.064;12.566;2022-12-18T03:59:32;15.88;;;9.85;;
49015;SDS011;34830;44.064;12.566;2022-12-18T04:01:59;14.68;;;9.60;;
49015;SDS011;34830;44.064;12.566;2022-12-18T04:04:26;15.10;;;9.70;;
49015;SDS011;34830;44.064;12.566;2022-12-18T04:06:53;15.98;;;10.63;;
49015;SDS011;34830;44.064;12.566;2022-12-18T04:09:19;13.57;;;9.30;;
49015;SDS011;34830;44.064;12.566;2022-12-18T04:11:47;16.40;;;9.00;;
49015;SDS011;34830;44.064;12.566;2022-12-18T04:14:14;17.88;;;9.75;;
49015;SDS011;34830;44.064;12.566;2022-12-18T04:16:41;15.85;;;9.13;;
49015;SDS011;34830;44.064;12.566;2022-12-18T04:19:10;18.27;;;9.30;;
49015;SDS011;34830;44.064;12.566;2022-12-18T04:21:41;20.33;;;11.13;;
49015;SDS011;34830;44.064;12.566;2022-12-18T04:24:10;15.40;;;9.00;;
49015;SDS011;34830;44.064;12.566;2022-12-18T04:26:40;15.45;;;10.45;;
49015;SDS011;34830;44.064;12.566;2022-12-18T04:29:13;20.08;;;10.10;;
49015;SDS011;34830;44.064;12.566;2022-12-18T04:31:39;19.23;;;10.90;;
49015;SDS011;34830;44.064;12.566;2022-12-18T04:34:06;18.60;;;10.07;;
49015;SDS011;34830;44.064;12.566;2022-12-18T04:36:38;18.45;;;10.70;;
49015;SDS011;34830;44.064;12.566;2022-12-18T04:39:04;15.75;;;9.82;;
49015;SDS011;34830;44.064;12.566;2022-12-18T04:41:32;15.43;;;10.05;;
49015;SDS011;34830;44.064;12.566;2022-12-18T04:43:59;15.80;;;9.55;;
49015;SDS011;34830;44.064;12.566;2022-12-18T04:46:25;18.92;;;9.95;;
49015;SDS011;34830;44.064;12.566;2022-12-18T04:48:51;16.88;;;10.52;;
49015;SDS011;34830;44.064;12.566;2022-12-18T04:51:17;18.70;;;10.38;;
49015;SDS011;34830;44.064;12.566;2022-12-18T04:53:43;17.63;;;11.30;;
49015;SDS011;34830;44.064;12.566;2022-12-18T04:56:10;17.48;;;10.10;;
49015;SDS011;34830;44.064;12.566;2022-12-18T04:58:39;18.23;;;10.43;;
49015;SDS011;34830;44.064;12.566;2022-12-18T05:01:06;16.35;;;9.30;;
49015;SDS011;34830;44.064;12.566;2022-12-18T05:03:36;16.45;;;9.50;;
49015;SDS011;34830;44.064;12.566;2022-12-18T05:06:02;15.27;;;9.45;;
49015;SDS011;34830;44.064;12.566;2022-12-18T05:08:29;14.68;;;9.00;;
49015;SDS011;34830;44.064;12.566;2022-12-18T05:10:59;14.35;;;8.98;;
49015;SDS011;34830;44.064;12.566;2022-12-18T05:13:26;12.97;;;8.43;;
49015;SDS011;34830;44.064;12.566;2022-12-18T05:15:53;12.15;;;7.65;;
49015;SDS011;34830;44.064;12.566;2022-12-18T05:18:20;12.10;;;7.60;;
49015;SDS011;34830;44.064;12.566;2022-12-18T05:20:46;11.05;;;7.40;;
49015;SDS011;34830;44.064;12.566;2022-12-18T05:23:13;13.63;;;7.35;;
49015;SDS011;34830;44.064;12.566;2022-12-18T05:25:39;14.07;;;8.70;;
49015;SDS011;34830;44.064;12.566;2022-12-18T05:28:05;16.67;;;9.20;;
49015;SDS011;34830;44.064;12.566;2022-12-18T05:30:31;11.07;;;7.60;;
49015;SDS011;34830;44.064;12.566;2022-12-18T05:32:57;12.80;;;8.20;;
49015;SDS011;34830;44.064;12.566;2022-12-18T05:35:23;12.02;;;8.02;;
49015;SDS011;34830;44.064;12.566;2022-12-18T05:37:49;15.43;;;8.32;;
49015;SDS011;34830;44.064;12.566;2022-12-18T05:40:15;14.13;;;8.38;;
49015;SDS011;34830;44.064;12.566;2022-12-18T05:42:41;11.48;;;7.07;;
49015;SDS011;34830;44.064;12.566;2022-12-18T05:45:07;9.68;;;6.90;;
49015;SDS011;34830;44.064;12.566;2022-12-18T05:47:33;13.75;;;7.45;;
49015;SDS011;34830;44.064;12.566;2022-12-18T05:50:00;13.63;;;8.15;;
49015;SDS011;34830;44.064;12.566;2022-12-18T05:52:26;15.57;;;9.32;;
49015;SDS011;34830;44.064;12.566;2022-12-18T05:54:52;22.02;;;10.75;;
49015;SDS011;34830;44.064;12.566;2022-12-18T05:57:18;22.20;;;11.20;;
49015;SDS011;34830;44.064;12.566;2022-12-18T05:59:44;16.95;;;7.45;;
49015;SDS011;34830;44.064;12.566;2022-12-18T06:02:10;11.40;;;6.97;;
49015;SDS011;34830;44.064;12.566;2022-12-18T06:04:37;13.70;;;7.45;;
49015;SDS011;34830;44.064;12.566;2022-12-18T06:07:03;15.77;;;6.75;;
49015;SDS011;34830;44.064;12.566;2022-12-18T06:09:29;9.93;;;6.60;;
49015;SDS011;34830;44.064;12.566;2022-12-18T06:11:55;8.38;;;6.22;;
49015;SDS011;34830;44.064;12.566;2022-12-18T06:14:21;9.15;;;6.18;;
49015;SDS011;34830;44.064;12.566;2022-12-18T06:16:47;10.48;;;6.43;;
49015;SDS011;34830;44.064;12.566;2022-12-18T06:19:14;11.00;;;6.90;;
49015;SDS011;34830;44.064;12.566;2022-12-18T06:21:41;9.70;;;6.53;;
49015;SDS011;34830;44.064;12.566;2022-12-18T06:24:07;9.95;;;6.10;;
49015;SDS011;34830;44.064;12.566;2022-12-18T06:26:33;9.05;;;6.65;;
49015;SDS011;34830;44.064;12.566;2022-12-18T06:28:59;10.80;;;6.38;;
49015;SDS011;34830;44.064;12.566;2022-12-18T06:31:25;9.93;;;6.32;;
49015;SDS011;34830;44.064;12.566;2022-12-18T06:33:52;12.15;;;6.90;;
49015;SDS011;34830;44.064;12.566;2022-12-18T06:36:18;13.43;;;8.05;;
49015;SDS011;34830;44.064;12.566;2022-12-18T06:38:45;12.15;;;7.25;;
49015;SDS011;34830;44.064;12.566;2022-12-18T06:41:19;13.63;;;8.05;;
49015;SDS011;34830;44.064;12.566;2022-12-18T06:43:46;12.02;;;7.50;;
49015;SDS011;34830;44.064;12.566;2022-12-18T06:46:12;11.98;;;7.95;;
49015;SDS011;34830;44.064;12.566;2022-12-18T06:48:39;13.80;;;7.35;;
49015;SDS011;34830;44.064;12.566;2022-12-18T06:51:05;14.30;;;7.93;;
49015;SDS011;34830;44.064;12.566;2022-12-18T06:53:32;13.90;;;7.85;;
49015;SDS011;34830;44.064;12.566;2022-12-18T06:55:59;11.70;;;7.18;;
49015;SDS011;34830;44.064;12.566;2022-12-18T06:58:26;13.30;;;8.02;;
49015;SDS011;34830;44.064;12.566;2022-12-18T07:00:53;11.95;;;7.72;;
49015;SDS011;34830;44.064;12.566;2022-12-18T07:03:19;14.38;;;7.28;;
49015;SDS011;34830;44.064;12.566;2022-12-18T07:05:45;12.95;;;7.50;;
49015;SDS011;34830;44.064;12.566;2022-12-18T07:08:11;9.82;;;7.05;;
49015;SDS011;34830;44.064;12.566;2022-12-18T07:10:41;12.18;;;7.43;;
49015;SDS011;34830;44.064;12.566;2022-12-18T07:13:08;13.13;;;7.80;;
49015;SDS011;34830;44.064;12.566;2022-12-18T07:15:34;10.48;;;6.63;;
49015;SDS011;34830;44.064;12.566;2022-12-18T07:18:00;14.85;;;7.97;;
49015;SDS011;34830;44.064;12.566;2022-12-18T07:20:26;9.88;;;6.32;;
49015;SDS011;34830;44.064;12.566;2022-12-18T07:22:52;12.30;;;7.00;;
49015;SDS011;34830;44.064;12.566;2022-12-18T07:25:18;14.32;;;6.70;;
49015;SDS011;34830;44.064;12.566;2022-12-18T07:27:44;11.98;;;7.78;;
49015;SDS011;34830;44.064;12.566;2022-12-18T07:30:10;12.40;;;7.43;;
49015;SDS011;34830;44.064;12.566;2022-12-18T07:32:37;11.10;;;7.07;;
49015;SDS011;34830;44.064;12.566;2022-12-18T07:35:03;13.55;;;7.15;;
49015;SDS011;34830;44.064;12.566;2022-12-18T07:37:29;13.35;;;7.30;;
49015;SDS011;34830;44.064;12.566;2022-12-18T07:39:55;11.98;;;6.38;;
49015;SDS011;34830;44.064;12.566;2022-12-18T07:42:21;12.75;;;6.68;;
49015;SDS011;34830;44.064;12.566;2022-12-18T07:44:56;12.00;;;7.28;;
49015;SDS011;34830;44.064;12.566;2022-12-18T07:47:23;9.80;;;7.15;;
49015;SDS011;34830;44.064;12.566;2022-12-18T07:49:49;12.88;;;6.68;;
49015;SDS011;34830;44.064;12.566;2022-12-18T07:52:16;10.75;;;7.53;;
49015;SDS011;34830;44.064;12.566;2022-12-18T07:54:42;13.25;;;7.18;;
49015;SDS011;34830;44.064;12.566;2022-12-18T07:57:09;12.45;;;7.57;;
49015;SDS011;34830;44.064;12.566;2022-12-18T07:59:35;12.77;;;7.20;;
49015;SDS011;34830;44.064;12.566;2022-12-18T08:02:01;14.30;;;7.18;;
49015;SDS011;34830;44.064;12.566;2022-12-18T08:04:27;13.65;;;7.10;;
49015;SDS011;34830;44.064;12.566;2022-12-18T08:06:53;17.75;;;7.72;;
49015;SDS011;34830;44.064;12.566;2022-12-18T08:09:19;12.95;;;7.57;;
49015;SDS011;34830;44.064;12.566;2022-12-18T08:11:45;14.55;;;7.00;;
49015;SDS011;34830;44.064;12.566;2022-12-18T08:14:12;12.48;;;7.35;;
49015;SDS011;34830;44.064;12.566;2022-12-18T08:16:38;13.50;;;8.07;;
49015;SDS011;34830;44.064;12.566;2022-12-18T08:19:04;16.33;;;8.48;;
49015;SDS011;34830;44.064;12.566;2022-12-18T08:21:30;18.80;;;8.23;;
49015;SDS011;34830;44.064;12.566;2022-12-18T08:23:58;12.68;;;8.05;;
49015;SDS011;34830;44.064;12.566;2022-12-18T08:26:25;12.50;;;8.18;;
49015;SDS011;34830;44.064;12.566;2022-12-18T08:28:53;11.02;;;7.47;;
49015;SDS011;34830;44.064;12.566;2022-12-18T08:31:20;14.13;;;8.50;;
49015;SDS011;34830;44.064;12.566;2022-12-18T08:33:51;12.05;;;7.70;;
49015;SDS011;34830;44.064;12.566;2022-12-18T08:36:18;18.05;;;6.95;;
49015;SDS011;34830;44.064;12.566;2022-12-18T08:38:47;10.90;;;7.30;;
49015;SDS011;34830;44.064;12.566;2022-12-18T08:41:14;11.65;;;7.05;;
49015;SDS011;34830;44.064;12.566;2022-12-18T08:43:41;11.07;;;7.43;;
49015;SDS011;34830;44.064;12.566;2022-12-18T08:46:26;12.27;;;7.82;;
49015;SDS011;34830;44.064;12.566;2022-12-18T08:48:53;18.98;;;7.55;;
49015;SDS011;34830;44.064;12.566;2022-12-18T08:51:20;11.60;;;7.82;;
49015;SDS011;34830;44.064;12.566;2022-12-18T08:53:47;14.45;;;7.15;;
49015;SDS011;34830;44.064;12.566;2022-12-18T08:56:13;13.85;;;7.50;;
49015;SDS011;34830;44.064;12.566;2022-12-18T08:58:40;12.25;;;7.10;;
49015;SDS011;34830;44.064;12.566;2022-12-18T09:01:08;11.90;;;7.40;;
49015;SDS011;34830;44.064;12.566;2022-12-18T09:03:35;8.25;;;5.95;;
49015;SDS011;34830;44.064;12.566;2022-12-18T09:06:02;11.45;;;5.97;;
49015;SDS011;34830;44.064;12.566;2022-12-18T09:08:28;11.40;;;6.22;;
49015;SDS011;34830;44.064;12.566;2022-12-18T09:10:54;8.40;;;5.63;;
49015;SDS011;34830;44.064;12.566;2022-12-18T09:13:21;13.70;;;7.18;;
49015;SDS011;34830;44.064;12.566;2022-12-18T09:15:48;12.82;;;7.50;;
49015;SDS011;34830;44.064;12.566;2022-12-18T09:18:17;9.77;;;6.70;;
49015;SDS011;34830;44.064;12.566;2022-12-18T09:20:44;11.93;;;6.80;;
49015;SDS011;34830;44.064;12.566;2022-12-18T09:23:11;12.48;;;6.57;;
49015;SDS011;34830;44.064;12.566;2022-12-18T09:25:38;12.68;;;6.07;;
49015;SDS011;34830;44.064;12.566;2022-12-18T09:28:05;8.32;;;5.45;;
49015;SDS011;34830;44.064;12.566;2022-12-18T09:30:37;13.53;;;6.20;;
49015;SDS011;34830;44.064;12.566;2022-12-18T09:33:03;11.18;;;6.25;;
49015;SDS011;34830;44.064;12.566;2022-12-18T09:35:30;9.68;;;5.65;;
49015;SDS011;34830;44.064;12.566;2022-12-18T09:37:56;10.18;;;6.25;;
49015;SDS011;34830;44.064;12.566;2022-12-18T09:40:23;9.70;;;6.63;;
49015;SDS011;34830;44.064;12.566;2022-12-18T09:42:54;10.35;;;6.22;;
49015;SDS011;34830;44.064;12.566;2022-12-18T09:45:23;12.85;;;6.57;;
49015;SDS011;34830;44.064;12.566;2022-12-18T09:47:49;11.18;;;5.75;;
49015;SDS011;34830;44.064;12.566;2022-12-18T09:52:57;10.85;;;6.03;;
49015;SDS011;34830;44.064;12.566;2022-12-18T09:55:36;8.68;;;5.45;;
49015;SDS011;34830;44.064;12.566;2022-12-18T10:00:56;14.20;;;6.82;;
49015;SDS011;34830;44.064;12.566;2022-12-18T10:03:22;12.40;;;8.15;;
49015;SDS011;34830;44.064;12.566;2022-12-18T10:10:53;12.73;;;6.93;;
49015;SDS011;34830;44.064;12.566;2022-12-18T10:13:28;12.27;;;6.57;;
49015;SDS011;34830;44.064;12.566;2022-12-18T10:21:12;14.20;;;7.28;;
49015;SDS011;34830;44.064;12.566;2022-12-18T10:24:09;14.25;;;7.65;;
49015;SDS011;34830;44.064;12.566;2022-12-18T10:26:43;10.95;;;6.55;;
49015;SDS011;34830;44.064;12.566;2022-12-18T10:29:10;12.80;;;7.72;;
49015;SDS011;34830;44.064;12.566;2022-12-18T10:31:39;13.25;;;7.53;;
49015;SDS011;34830;44.064;12.566;2022-12-18T10:34:09;13.90;;;7.65;;
49015;SDS011;34830;44.064;12.566;2022-12-18T10:36:37;12.85;;;7.07;;
49015;SDS011;34830;44.064;12.566;2022-12-18T10:39:20;16.88;;;7.22;;
49015;SDS011;34830;44.064;12.566;2022-12-18T10:41:49;14.27;;;7.45;;
49015;SDS011;34830;44.064;12.566;2022-12-18T10:44:19;16.75;;;7.75;;
49015;SDS011;34830;44.064;12.566;2022-12-18T10:46:46;16.83;;;8.50;;
49015;SDS011;34830;44.064;12.566;2022-12-18T10:51:51;13.98;;;8.20;;
49015;SDS011;34830;44.064;12.566;2022-12-18T10:54:46;14.23;;;7.80;;
49015;SDS011;34830;44.064;12.566;2022-12-18T10:57:37;13.68;;;7.95;;
49015;SDS011;34830;44.064;12.566;2022-12-18T11:00:38;12.82;;;8.27;;
49015;SDS011;34830;44.064;12.566;2022-12-18T11:02:57;12.60;;;7.85;;
49015;SDS011;34830;44.064;12.566;2022-12-18T11:05:25;11.85;;;8.52;;
49015;SDS011;34830;44.064;12.566;2022-12-18T11:07:55;13.70;;;8.82;;
49015;SDS011;34830;44.064;12.566;2022-12-18T11:10:26;15.00;;;9.18;;
49015;SDS011;34830;44.064;12.566;2022-12-18T11:13:07;14.32;;;8.63;;
49015;SDS011;34830;44.064;12.566;2022-12-18T11:15:39;13.13;;;8.35;;
49015;SDS011;34830;44.064;12.566;2022-12-18T11:18:13;24.52;;;9.10;;
49015;SDS011;34830;44.064;12.566;2022-12-18T11:21:11;16.83;;;9.50;;
49015;SDS011;34830;44.064;12.566;2022-12-18T11:23:49;13.63;;;8.43;;
49015;SDS011;34830;44.064;12.566;2022-12-18T11:26:16;18.27;;;9.77;;
49015;SDS011;34830;44.064;12.566;2022-12-18T11:28:46;14.45;;;8.48;;
49015;SDS011;34830;44.064;12.566;2022-12-18T11:31:22;20.15;;;9.68;;
49015;SDS011;34830;44.064;12.566;2022-12-18T11:36:38;14.98;;;8.85;;
49015;SDS011;34830;44.064;12.566;2022-12-18T11:45:24;13.32;;;8.25;;
49015;SDS011;34830;44.064;12.566;2022-12-18T11:53:11;17.33;;;8.43;;
49015;SDS011;34830;44.064;12.566;2022-12-18T11:58:28;17.10;;;9.75;;
49015;SDS011;34830;44.064;12.566;2022-12-18T12:01:07;17.65;;;8.90;;
49015;SDS011;34830;44.064;12.566;2022-12-18T12:03:44;23.35;;;9.40;;
49015;SDS011;34830;44.064;12.566;2022-12-18T12:15:02;16.40;;;8.57;;
49015;SDS011;34830;44.064;12.566;2022-12-18T12:17:39;17.63;;;10.23;;
49015;SDS011;34830;44.064;12.566;2022-12-18T12:20:12;15.77;;;10.30;;
49015;SDS011;34830;44.064;12.566;2022-12-18T12:33:28;17.02;;;10.27;;
49015;SDS011;34830;44.064;12.566;2022-12-18T12:38:46;16.90;;;10.10;;
49015;SDS011;34830;44.064;12.566;2022-12-18T12:41:23;16.67;;;9.32;;
49015;SDS011;34830;44.064;12.566;2022-12-18T12:44:13;14.95;;;9.35;;
49015;SDS011;34830;44.064;12.566;2022-12-18T12:46:41;17.13;;;8.87;;
49015;SDS011;34830;44.064;12.566;2022-12-18T12:49:15;17.98;;;10.45;;
49015;SDS011;34830;44.064;12.566;2022-12-18T12:51:43;17.15;;;10.30;;
49015;SDS011;34830;44.064;12.566;2022-12-18T12:54:20;18.63;;;9.85;;
49015;SDS011;34830;44.064;12.566;2022-12-18T13:05:56;16.77;;;10.45;;
49015;SDS011;34830;44.064;12.566;2022-12-18T13:10:54;18.90;;;10.20;;
49015;SDS011;34830;44.064;12.566;2022-12-18T13:13:48;19.02;;;10.50;;
49015;SDS011;34830;44.064;12.566;2022-12-18T13:16:19;14.00;;;8.77;;
49015;SDS011;34830;44.064;12.566;2022-12-18T13:19:18;18.60;;;8.73;;
49015;SDS011;34830;44.064;12.566;2022-12-18T13:21:45;15.68;;;9.23;;
49015;SDS011;34830;44.064;12.566;2022-12-18T13:26:48;18.30;;;9.75;;
49015;SDS011;34830;44.064;12.566;2022-12-18T13:29:39;21.30;;;9.15;;
49015;SDS011;34830;44.064;12.566;2022-12-18T13:32:15;16.25;;;8.68;;
49015;SDS011;34830;44.064;12.566;2022-12-18T13:34:46;15.77;;;9.63;;
49015;SDS011;34830;44.064;12.566;2022-12-18T13:39:57;17.38;;;9.38;;
49015;SDS011;34830;44.064;12.566;2022-12-18T13:48:03;15.55;;;9.63;;
49015;SDS011;34830;44.064;12.566;2022-12-18T13:50:30;15.32;;;9.93;;
49015;SDS011;34830;44.064;12.566;2022-12-18T13:52:56;15.07;;;9.40;;
49015;SDS011;34830;44.064;12.566;2022-12-18T13:55:23;22.75;;;11.23;;
49015;SDS011;34830;44.064;12.566;2022-12-18T13:57:49;19.58;;;11.30;;
49015;SDS011;34830;44.064;12.566;2022-12-18T14:00:22;16.02;;;10.50;;
49015;SDS011;34830;44.064;12.566;2022-12-18T14:02:49;14.85;;;9.73;;
49015;SDS011;34830;44.064;12.566;2022-12-18T14:05:26;16.17;;;10.02;;
49015;SDS011;34830;44.064;12.566;2022-12-18T14:08:00;18.10;;;10.57;;
49015;SDS011;34830;44.064;12.566;2022-12-18T14:10:32;20.67;;;11.13;;
49015;SDS011;34830;44.064;12.566;2022-12-18T14:13:01;23.83;;;11.85;;
49015;SDS011;34830;44.064;12.566;2022-12-18T14:20:45;17.02;;;10.50;;
49015;SDS011;34830;44.064;12.566;2022-12-18T14:23:29;18.50;;;11.48;;
49015;SDS011;34830;44.064;12.566;2022-12-18T14:25:58;16.92;;;10.35;;
49015;SDS011;34830;44.064;12.566;2022-12-18T14:28:24;20.92;;;11.38;;
49015;SDS011;34830;44.064;12.566;2022-12-18T14:30:52;19.98;;;10.73;;
49015;SDS011;34830;44.064;12.566;2022-12-18T14:33:26;20.98;;;11.98;;
49015;SDS011;34830;44.064;12.566;2022-12-18T14:38:33;19.95;;;11.60;;
49015;SDS011;34830;44.064;12.566;2022-12-18T14:41:04;19.00;;;10.95;;
49015;SDS011;34830;44.064;12.566;2022-12-18T14:43:40;21.02;;;12.02;;
49015;SDS011;34830;44.064;12.566;2022-12-18T14:49:04;23.85;;;11.70;;
49015;SDS011;34830;44.064;12.566;2022-12-18T14:51:42;19.42;;;12.55;;
49015;SDS011;34830;44.064;12.566;2022-12-18T14:54:16;24.35;;;16.08;;
49015;SDS011;34830;44.064;12.566;2022-12-18T14:56:48;19.60;;;12.77;;
49015;SDS011;34830;44.064;12.566;2022-12-18T15:01:46;20.00;;;11.48;;
49015;SDS011;34830;44.064;12.566;2022-12-18T15:04:34;22.08;;;11.70;;
49015;SDS011;34830;44.064;12.566;2022-12-18T15:09:36;22.20;;;12.85;;
49015;SDS011;34830;44.064;12.566;2022-12-18T15:12:02;20.83;;;11.63;;
49015;SDS011;34830;44.064;12.566;2022-12-18T15:14:30;20.98;;;11.55;;
49015;SDS011;34830;44.064;12.566;2022-12-18T15:17:13;23.10;;;12.52;;
49015;SDS011;34830;44.064;12.566;2022-12-18T15:19:44;23.17;;;12.32;;
49015;SDS011;34830;44.064;12.566;2022-12-18T15:22:30;20.35;;;12.95;;
49015;SDS011;34830;44.064;12.566;2022-12-18T15:24:59;20.30;;;12.18;;
49015;SDS011;34830;44.064;12.566;2022-12-18T15:32:38;23.38;;;13.00;;
49015;SDS011;34830;44.064;12.566;2022-12-18T15:35:21;25.20;;;13.20;;
49015;SDS011;34830;44.064;12.566;2022-12-18T15:37:49;20.90;;;12.47;;
49015;SDS011;34830;44.064;12.566;2022-12-18T15:40:21;20.45;;;14.30;;
49015;SDS011;34830;44.064;12.566;2022-12-18T15:42:48;25.20;;;13.63;;
49015;SDS011;34830;44.064;12.566;2022-12-18T15:45:35;24.17;;;13.63;;
49015;SDS011;34830;44.064;12.566;2022-12-18T15:48:01;25.73;;;14.13;;
49015;SDS011;34830;44.064;12.566;2022-12-18T15:50:30;24.42;;;14.13;;
49015;SDS011;34830;44.064;12.566;2022-12-18T15:52:56;22.20;;;13.38;;
49015;SDS011;34830;44.064;12.566;2022-12-18T15:55:23;22.63;;;13.50;;
49015;SDS011;34830;44.064;12.566;2022-12-18T15:58:09;27.65;;;13.70;;
49015;SDS011;34830;44.064;12.566;2022-12-18T16:00:36;23.77;;;15.05;;
49015;SDS011;34830;44.064;12.566;2022-12-18T16:03:05;25.75;;;14.43;;
49015;SDS011;34830;44.064;12.566;2022-12-18T16:05:31;28.73;;;14.98;;
49015;SDS011;34830;44.064;12.566;2022-12-18T16:07:57;26.98;;;15.60;;
49015;SDS011;34830;44.064;12.566;2022-12-18T16:10:24;26.05;;;15.77;;
49015;SDS011;34830;44.064;12.566;2022-12-18T16:12:51;27.52;;;15.05;;
49015;SDS011;34830;44.064;12.566;2022-12-18T16:15:17;25.85;;;15.25;;
49015;SDS011;34830;44.064;12.566;2022-12-18T16:17:43;27.80;;;17.05;;
49015;SDS011;34830;44.064;12.566;2022-12-18T16:20:13;26.70;;;16.52;;
49015;SDS011;34830;44.064;12.566;2022-12-18T16:22:41;30.77;;;16.25;;
49015;SDS011;34830;44.064;12.566;2022-12-18T16:25:11;30.17;;;17.58;;
49015;SDS011;34830;44.064;12.566;2022-12-18T16:27:42;27.85;;;16.58;;
49015;SDS011;34830;44.064;12.566;2022-12-18T16:30:12;30.48;;;18.50;;
49015;SDS011;34830;44.064;12.566;2022-12-18T16:32:39;28.30;;;15.13;;
49015;SDS011;34830;44.064;12.566;2022-12-18T16:35:05;27.08;;;16.02;;
49015;SDS011;34830;44.064;12.566;2022-12-18T16:37:33;25.88;;;16.48;;
49015;SDS011;34830;44.064;12.566;2022-12-18T16:39:59;23.52;;;15.05;;
49015;SDS011;34830;44.064;12.566;2022-12-18T16:42:26;30.25;;;19.10;;
49015;SDS011;34830;44.064;12.566;2022-12-18T16:44:52;29.52;;;17.88;;
49015;SDS011;34830;44.064;12.566;2022-12-18T16:47:18;36.78;;;21.20;;